Time;durP1;ratioP1;P1;durP2;ratioP2;P2;SDS_P1;SDS_P2;PMS_P1;PMS_P2;Temp;Humidity;BMP_temperature;BMP_pressure;BME280_temperature;BME280_humidity;BME280_pressure;Samples;Min_cycle;Max_cycle;Signal;HPM_P1;HPM_P2
2023/12/10 00:01:18;;;;;;;0.60;0.60;;;0.10;99.90;2.70;95883.00;;;;5011451;28;20771;-85
2023/12/10 00:04:07;;;;;;;0.70;0.70;;;0.10;99.90;2.70;95884.00;;;;5010146;28;20880;-86
2023/12/10 00:06:56;;;;;;;0.83;0.83;;;0.10;99.90;2.70;95879.00;;;;5010616;28;20510;-85
2023/12/10 00:09:45;;;;;;;0.60;0.60;;;0.20;99.90;2.80;95874.00;;;;5010119;28;20444;-85
2023/12/10 00:12:36;;;;;;;0.60;0.60;;;0.20;99.90;2.70;95862.00;;;;5010727;28;20918;-84
2023/12/10 00:15:25;;;;;;;0.60;0.60;;;0.20;99.90;2.80;95865.00;;;;5008563;28;20417;-85
2023/12/10 00:18:14;;;;;;;0.50;0.50;;;0.20;99.90;2.80;95854.00;;;;5009866;28;20945;-84
2023/12/10 00:21:03;;;;;;;0.80;0.80;;;0.20;99.90;2.70;95863.00;;;;5009754;28;20480;-85
2023/12/10 00:23:52;;;;;;;0.53;0.53;;;0.20;99.90;2.70;95854.00;;;;5010969;28;20437;-85
2023/12/10 00:26:41;;;;;;;0.50;0.50;;;1.00;99.90;2.70;95848.00;;;;5007810;28;20437;-85
2023/12/10 00:29:31;;;;;;;0.57;0.57;;;0.20;99.90;2.80;95846.00;;;;5009327;28;20467;-85
2023/12/10 00:32:20;;;;;;;0.75;0.75;;;0.20;99.90;2.70;95841.00;;;;5011861;28;20433;-85
2023/12/10 00:35:10;;;;;;;0.70;0.70;;;0.20;99.90;2.60;95852.00;;;;5011722;28;20946;-85
2023/12/10 00:37:59;;;;;;;1.10;1.10;;;0.20;99.90;2.60;95841.00;;;;5007648;28;20808;-84
2023/12/10 00:40:48;;;;;;;0.57;0.57;;;0.20;99.90;2.70;95841.00;;;;5012637;28;20572;-85
2023/12/10 00:43:37;;;;;;;0.57;0.57;;;0.10;99.90;2.80;95844.00;;;;5011240;28;20950;-84
2023/12/10 00:46:27;;;;;;;0.67;0.67;;;0.10;99.90;2.70;95844.00;;;;5010827;28;20441;-85
2023/12/10 00:49:16;;;;;;;0.63;0.63;;;0.20;99.90;2.80;95837.00;;;;5007260;28;20977;-84
2023/12/10 00:52:06;;;;;;;0.73;0.73;;;0.20;99.90;2.70;95837.00;;;;5009262;28;20455;-85
2023/12/10 00:54:55;;;;;;;0.60;0.60;;;0.20;99.90;2.50;95832.00;;;;5007071;28;20434;-84
2023/12/10 00:57:44;;;;;;;0.70;0.70;;;0.10;99.90;2.50;95829.00;;;;5006531;28;20445;-85
2023/12/10 01:00:33;;;;;;;0.67;0.67;;;0.10;99.90;2.60;95831.00;;;;5013614;28;21020;-85
2023/12/10 01:03:23;;;;;;;0.80;0.80;;;0.10;99.90;2.50;95831.00;;;;5005159;28;20984;-85
2023/12/10 01:06:12;;;;;;;0.70;0.70;;;0.10;99.90;2.50;95834.00;;;;5013187;28;20441;-85
2023/12/10 01:09:02;;;;;;;1.00;1.00;;;0.10;99.90;2.50;95835.00;;;;5010429;28;20429;-85
2023/12/10 01:11:50;;;;;;;0.60;0.60;;;0.10;99.90;2.70;95830.00;;;;5010171;28;20432;-85
2023/12/10 01:14:40;;;;;;;0.50;0.50;;;0.10;99.90;2.80;95823.00;;;;5008508;28;20449;-85
2023/12/10 01:17:29;;;;;;;0.63;0.63;;;0.10;99.90;2.80;95825.00;;;;5013418;28;20436;-85
2023/12/10 01:20:19;;;;;;;0.47;0.47;;;0.20;99.90;2.60;95839.00;;;;5009479;28;20449;-85
2023/12/10 01:23:09;;;;;;;0.70;0.70;;;0.10;99.90;2.40;95840.00;;;;5007444;28;20437;-85
2023/12/10 01:25:58;;;;;;;1.07;1.07;;;0.10;99.90;2.40;95835.00;;;;5007828;28;20429;-85
2023/12/10 01:28:47;;;;;;;0.57;0.57;;;0.10;99.90;2.60;95842.00;;;;5008666;28;20425;-85
2023/12/10 01:31:36;;;;;;;0.60;0.60;;;0.10;99.90;2.60;95832.00;;;;5009993;28;20429;-85
2023/12/10 01:34:25;;;;;;;0.70;0.70;;;0.10;99.90;2.70;95827.00;;;;5010127;28;20801;-85
2023/12/10 01:37:15;;;;;;;0.50;0.50;;;0.10;99.90;2.60;95834.00;;;;5016686;28;20441;-85
2023/12/10 01:40:08;;;;;;;0.70;0.70;;;0.10;99.90;2.30;95827.00;;;;5009780;28;20962;-85
2023/12/10 01:42:57;;;;;;;0.83;0.83;;;0.10;99.90;2.60;95829.00;;;;5008293;28;20961;-85
2023/12/10 01:45:49;;;;;;;0.50;0.50;;;0.10;99.90;2.50;95825.00;;;;5005583;28;20421;-85
2023/12/10 01:48:39;;;;;;;0.57;0.57;;;0.10;99.90;2.50;95827.00;;;;5012409;28;20437;-85
2023/12/10 01:51:28;;;;;;;0.50;0.50;;;0.10;99.90;2.30;95818.00;;;;5007723;28;20846;-84
2023/12/10 01:54:23;;;;;;;0.50;0.50;;;0.10;99.90;2.50;95819.00;;;;5009150;28;20717;-85
2023/12/10 01:57:13;;;;;;;0.80;0.80;;;0.10;99.90;2.30;95810.00;;;;5011515;28;20445;-84
2023/12/10 02:00:05;;;;;;;0.73;0.73;;;0.00;99.90;1.80;95806.00;;;;5007035;28;20452;-84
2023/12/10 02:02:56;;;;;;;0.63;0.63;;;-0.10;99.90;2.20;95831.00;;;;5008519;28;21000;-84
2023/12/10 02:05:45;;;;;;;0.70;0.70;;;-0.10;99.90;2.40;95828.00;;;;5000308;28;20441;-85
2023/12/10 02:08:33;;;;;;;0.50;0.50;;;-0.10;99.90;2.40;95821.00;;;;5007598;28;20437;-85
2023/12/10 02:11:24;;;;;;;0.53;0.53;;;-0.10;99.90;2.40;95853.00;;;;5006556;28;20430;-85
2023/12/10 02:14:13;;;;;;;0.40;0.40;;;-0.10;99.90;2.40;95839.00;;;;5009044;28;20812;-85
2023/12/10 02:17:02;;;;;;;0.70;0.70;;;-0.10;99.90;2.40;95842.00;;;;5006078;28;20436;-85
2023/12/10 02:19:51;;;;;;;0.60;0.60;;;-0.10;99.90;2.50;95835.00;;;;5005244;28;20664;-85
2023/12/10 02:22:48;;;;;;;0.70;0.70;;;-0.10;99.90;2.50;95840.00;;;;5007673;28;20491;-85
2023/12/10 02:25:40;;;;;;;0.70;0.70;;;0.00;99.90;2.10;95823.00;;;;5009006;28;20942;-85
2023/12/10 02:28:29;;;;;;;0.60;0.60;;;-0.10;99.90;2.30;95803.00;;;;5006655;28;20440;-84
2023/12/10 02:31:19;;;;;;;0.50;0.50;;;-0.10;99.90;2.40;95825.00;;;;5011405;28;20412;-84
2023/12/10 02:34:08;;;;;;;0.53;0.53;;;-0.10;99.90;2.40;95818.00;;;;5006829;28;20433;-85
2023/12/10 02:36:57;;;;;;;0.67;0.67;;;-0.10;99.90;2.50;95812.00;;;;5004741;28;20789;-85
2023/12/10 02:39:46;;;;;;;0.50;0.50;;;-0.10;99.90;2.50;95814.00;;;;5004030;28;20464;-85
2023/12/10 02:42:36;;;;;;;0.53;0.53;;;-0.10;99.90;2.50;95809.00;;;;5006750;28;20992;-85
2023/12/10 02:45:25;;;;;;;0.63;0.63;;;-0.10;99.90;1.90;95811.00;;;;5007089;28;20425;-84
2023/12/10 02:48:14;;;;;;;0.60;0.60;;;-0.10;99.90;1.90;95803.00;;;;5010945;28;20444;-84
2023/12/10 02:51:04;;;;;;;0.70;0.70;;;-0.20;99.90;1.70;95798.00;;;;5006358;28;20492;-85
2023/12/10 02:53:53;;;;;;;0.60;0.60;;;-0.20;99.90;2.00;95812.00;;;;5008466;28;20433;-84
2023/12/10 02:56:42;;;;;;;0.50;0.50;;;-0.20;99.90;2.00;95823.00;;;;5008308;28;20450;-85
2023/12/10 02:59:32;;;;;;;0.60;0.60;;;-0.20;99.90;1.90;95811.00;;;;5007704;28;20796;-84
2023/12/10 03:02:21;;;;;;;0.50;0.50;;;-0.20;99.90;1.60;95817.00;;;;5011596;28;20459;-84
2023/12/10 03:05:10;;;;;;;0.60;0.60;;;-0.30;99.90;1.50;95803.00;;;;5011685;28;20440;-84
2023/12/10 03:07:59;;;;;;;0.63;0.63;;;-0.40;99.90;2.00;95807.00;;;;5007591;28;20970;-84
2023/12/10 03:10:48;;;;;;;0.50;0.50;;;-0.40;99.90;2.10;95818.00;;;;5004231;28;20456;-84
2023/12/10 03:13:37;;;;;;;0.60;0.60;;;-0.30;99.90;2.10;95825.00;;;;5011354;28;20441;-84
2023/12/10 03:16:27;;;;;;;0.70;0.70;;;-0.30;99.90;2.20;95815.00;;;;5008729;28;20430;-85
2023/12/10 03:19:17;;;;;;;0.53;0.53;;;-0.30;99.90;2.10;95826.00;;;;5007277;28;20464;-84
2023/12/10 03:22:06;;;;;;;0.73;0.73;;;-0.30;99.90;2.20;95822.00;;;;5012030;28;20495;-85
2023/12/10 03:24:55;;;;;;;0.50;0.50;;;-0.30;99.90;2.30;95824.00;;;;5005448;28;20437;-83
2023/12/10 03:27:44;;;;;;;0.40;0.40;;;-0.20;99.90;2.40;95829.00;;;;5007263;28;20429;-83
2023/12/10 03:30:33;;;;;;;0.57;0.57;;;-0.20;99.90;2.40;95837.00;;;;5009428;28;20461;-84
2023/12/10 03:33:23;;;;;;;0.70;0.70;;;-0.20;99.90;2.20;95832.00;;;;5007271;28;20501;-83
2023/12/10 03:36:13;;;;;;;0.50;0.50;;;-0.20;99.90;2.00;95836.00;;;;5007875;28;20499;-83
2023/12/10 03:39:02;;;;;;;0.70;0.70;;;-0.20;99.90;2.10;95837.00;;;;5011545;28;20445;-83
2023/12/10 03:41:51;;;;;;;0.70;0.70;;;-0.20;99.90;2.30;95833.00;;;;5004222;28;20488;-83
2023/12/10 03:44:42;;;;;;;0.50;0.50;;;-0.20;99.90;2.40;95830.00;;;;5011759;28;20973;-83
2023/12/10 03:47:31;;;;;;;0.60;0.60;;;-0.20;99.90;2.40;95836.00;;;;5009178;28;20433;-84
2023/12/10 03:50:21;;;;;;;0.40;0.40;;;-0.20;99.90;2.20;95818.00;;;;5004835;28;20450;-83
2023/12/10 03:53:10;;;;;;;0.60;0.60;;;-0.20;99.90;2.10;95826.00;;;;5010444;28;20429;-83
2023/12/10 03:55:59;;;;;;;0.67;0.67;;;-0.20;99.90;1.90;95813.00;;;;5008593;28;20436;-83
2023/12/10 03:58:48;;;;;;;0.50;0.50;;;-0.20;99.90;2.20;95811.00;;;;5008565;28;20430;-83
2023/12/10 04:01:37;;;;;;;0.47;0.47;;;-0.30;99.90;2.20;95818.00;;;;5011342;28;20440;-84
2023/12/10 04:04:26;;;;;;;0.60;0.60;;;-0.30;99.90;2.20;95821.00;;;;5008153;28;20433;-82
2023/12/10 04:07:16;;;;;;;0.70;0.70;;;-0.20;99.90;2.00;95820.00;;;;5010689;28;20444;-83
2023/12/10 04:10:07;;;;;;;0.80;0.80;;;-0.20;99.90;1.90;95813.00;;;;5008848;28;20507;-83
2023/12/10 04:12:56;;;;;;;0.60;0.60;;;-0.30;99.90;2.20;95809.00;;;;5007301;28;20436;-82
2023/12/10 04:15:46;;;;;;;0.50;0.50;;;-0.30;99.90;2.30;95830.00;;;;5007217;28;20440;-83
2023/12/10 04:18:37;;;;;;;0.50;0.50;;;-0.30;99.90;1.80;95818.00;;;;5009861;28;20787;-83
2023/12/10 04:21:26;;;;;;;0.60;0.60;;;-0.30;99.90;1.50;95826.00;;;;5008148;28;20930;-83
2023/12/10 04:24:17;;;;;;;0.50;0.50;;;-0.40;99.90;1.30;95824.00;;;;5013639;28;20440;-83
2023/12/10 04:27:06;;;;;;;0.70;0.70;;;-0.40;99.90;0.80;95807.00;;;;5011233;28;20429;-82
2023/12/10 04:29:55;;;;;;;0.50;0.50;;;-0.60;99.90;1.50;95814.00;;;;5009665;28;21085;-83
2023/12/10 04:32:44;;;;;;;0.60;0.60;;;-0.60;99.90;1.90;95810.00;;;;5011425;28;20441;-83
2023/12/10 04:35:33;;;;;;;0.63;0.63;;;-0.50;99.90;2.00;95803.00;;;;5011538;28;20421;-83
2023/12/10 04:38:22;;;;;;;0.53;0.53;;;-0.50;99.90;2.00;95833.00;;;;5013885;28;20432;-83
2023/12/10 04:41:12;;;;;;;0.60;0.60;;;-0.40;99.90;1.80;95822.00;;;;5009957;28;20832;-83
2023/12/10 04:44:01;;;;;;;0.70;0.70;;;-0.40;99.90;1.80;95829.00;;;;5008581;28;20461;-83
2023/12/10 04:46:51;;;;;;;0.70;0.70;;;-0.40;99.90;1.70;95815.00;;;;5005895;28;20433;-83
2023/12/10 04:49:40;;;;;;;0.57;0.57;;;-0.40;99.90;2.00;95825.00;;;;5009381;28;20460;-83
2023/12/10 04:52:29;;;;;;;0.60;0.60;;;-0.40;99.90;1.80;95833.00;;;;5011809;28;20428;-83
2023/12/10 04:55:18;;;;;;;0.50;0.50;;;-0.40;99.90;1.90;95831.00;;;;5010698;28;20434;-83
2023/12/10 04:58:09;;;;;;;0.70;0.70;;;-0.40;99.90;2.00;95833.00;;;;5014781;28;20434;-84
2023/12/10 05:00:57;;;;;;;0.70;0.70;;;-0.40;99.90;1.60;95812.00;;;;5007204;28;20962;-83
2023/12/10 05:03:46;;;;;;;0.50;0.50;;;-0.50;99.90;1.90;95826.00;;;;5005847;28;20464;-83
2023/12/10 05:06:35;;;;;;;0.50;0.50;;;-0.50;99.90;1.40;95828.00;;;;5008606;28;20939;-83
2023/12/10 05:09:24;;;;;;;0.70;0.70;;;-0.50;99.90;1.40;95833.00;;;;5009673;28;20437;-83
2023/12/10 05:12:13;;;;;;;0.70;0.70;;;-0.60;99.90;1.40;95849.00;;;;5009059;28;20426;-83
2023/12/10 05:15:05;;;;;;;0.70;0.70;;;-0.60;99.90;1.90;95853.00;;;;5006001;28;20421;-83
2023/12/10 05:17:54;;;;;;;0.50;0.50;;;-0.50;99.90;1.80;95858.00;;;;5006955;28;20430;-82
2023/12/10 05:20:43;;;;;;;0.40;0.40;;;-0.50;99.90;1.40;95865.00;;;;5010365;28;20499;-83
2023/12/10 05:23:32;;;;;;;0.60;0.60;;;-0.60;99.90;1.70;95881.00;;;;5012405;28;21004;-83
2023/12/10 05:26:21;;;;;;;0.60;0.60;;;-0.50;99.90;1.90;95878.00;;;;5009186;28;20429;-83
2023/12/10 05:29:10;;;;;;;0.60;0.60;;;-0.60;99.90;1.60;95890.00;;;;5013748;28;20457;-83
2023/12/10 05:32:00;;;;;;;0.60;0.60;;;-0.50;99.90;1.80;95899.00;;;;5006704;28;20432;-83
2023/12/10 05:34:50;;;;;;;0.40;0.40;;;-0.50;99.90;1.50;95903.00;;;;5011351;28;20421;-83
2023/12/10 05:37:38;;;;;;;0.50;0.50;;;-0.50;99.90;1.70;95905.00;;;;5008885;28;20421;-83
2023/12/10 05:40:28;;;;;;;0.60;0.60;;;-0.50;99.90;1.40;95906.00;;;;5009341;28;20457;-83
2023/12/10 05:43:17;;;;;;;0.63;0.63;;;-0.50;99.90;1.90;95912.00;;;;5008100;28;20468;-83
2023/12/10 05:46:06;;;;;;;0.70;0.70;;;-0.50;99.90;2.00;95926.00;;;;5009355;28;20449;-83
2023/12/10 05:48:57;;;;;;;0.60;0.60;;;-0.50;99.90;1.60;95935.00;;;;5006268;28;20822;-82
2023/12/10 05:51:46;;;;;;;0.63;0.63;;;-0.50;99.90;2.10;95943.00;;;;5005682;28;20465;-83
2023/12/10 05:54:35;;;;;;;0.60;0.60;;;-0.40;99.90;2.00;95940.00;;;;5011968;28;20433;-83
2023/12/10 05:57:24;;;;;;;0.80;0.80;;;-0.40;99.90;2.00;95934.00;;;;5008928;28;20433;-83
2023/12/10 06:00:15;;;;;;;0.60;0.60;;;-0.40;99.90;1.80;95936.00;;;;5008524;28;20473;-83
2023/12/10 06:03:04;;;;;;;0.70;0.70;;;-0.40;99.90;2.00;95945.00;;;;5008796;28;20465;-82
2023/12/10 06:05:54;;;;;;;0.57;0.57;;;-0.40;99.90;1.50;95938.00;;;;5005723;28;20429;-83
2023/12/10 06:08:43;;;;;;;0.50;0.50;;;-0.50;99.90;1.50;95955.00;;;;5011713;28;20954;-83
2023/12/10 06:11:32;;;;;;;0.50;0.50;;;-0.50;99.90;0.90;95959.00;;;;5007371;28;20435;-83
2023/12/10 06:14:22;;;;;;;0.57;0.57;;;-0.60;99.90;1.40;95959.00;;;;5008140;28;20459;-83
2023/12/10 06:17:10;;;;;;;0.50;0.50;;;-0.60;99.90;1.50;95964.00;;;;5007308;28;20425;-82
2023/12/10 06:19:59;;;;;;;0.50;0.50;;;-0.60;99.90;1.90;95966.00;;;;5005801;28;20453;-83
2023/12/10 06:22:50;;;;;;;0.73;0.73;;;-0.50;99.90;2.10;95975.00;;;;5003968;28;20422;-82
2023/12/10 06:25:39;;;;;;;0.50;0.50;;;-0.50;99.90;2.00;95981.00;;;;5013125;28;20420;-83
2023/12/10 06:28:28;;;;;;;0.60;0.60;;;-0.50;99.90;1.80;95986.00;;;;5011805;28;20425;-83
2023/12/10 06:31:17;;;;;;;0.63;0.63;;;-0.50;99.90;1.50;95984.00;;;;5008996;28;20433;-83
2023/12/10 06:34:05;;;;;;;0.63;0.63;;;-0.50;99.90;1.70;95982.00;;;;5007039;28;20437;-83
2023/12/10 06:36:54;;;;;;;0.60;0.60;;;-0.50;99.90;1.70;95995.00;;;;5004336;28;20830;-82
2023/12/10 06:39:45;;;;;;;0.60;0.60;;;-0.50;99.90;1.80;95994.00;;;;5004636;28;20461;-83
2023/12/10 06:42:34;;;;;;;0.60;0.60;;;-0.50;99.90;2.10;95990.00;;;;5004366;28;20806;-83
2023/12/10 06:45:23;;;;;;;0.77;0.77;;;-0.40;99.90;1.80;95986.00;;;;5000423;28;20456;-82
2023/12/10 06:48:12;;;;;;;0.60;0.60;;;-0.40;99.90;1.50;95967.00;;;;5004949;28;20448;-83
2023/12/10 06:51:02;;;;;;;0.80;0.80;;;-0.40;99.90;1.20;95980.00;;;;5004182;28;20516;-83
2023/12/10 06:53:51;;;;;;;0.53;0.53;;;-0.50;99.90;1.90;96005.00;;;;5004759;28;20942;-83
2023/12/10 06:56:42;;;;;;;0.50;0.50;;;-0.50;99.90;2.00;96007.00;;;;5006058;28;20484;-84
2023/12/10 06:59:30;;;;;;;0.60;0.60;;;-0.40;99.90;1.70;95998.00;;;;5006009;28;20449;-85
2023/12/10 07:02:19;;;;;;;0.60;0.60;;;-0.40;99.90;1.50;96004.00;;;;5006097;28;20451;-84
2023/12/10 07:05:09;;;;;;;0.70;0.70;;;-0.40;99.90;1.40;96013.00;;;;5005287;28;20469;-83
2023/12/10 07:07:58;;;;;;;0.47;0.47;;;-0.40;99.90;1.20;96011.00;;;;5006575;28;20441;-83
2023/12/10 07:10:47;;;;;;;0.60;0.60;;;-0.50;99.90;1.90;96015.00;;;;5005343;28;20498;-83
2023/12/10 07:13:37;;;;;;;0.63;0.63;;;-0.50;99.90;2.10;96024.00;;;;5005245;28;20433;-82
2023/12/10 07:16:26;;;;;;;0.60;0.60;;;-0.40;99.90;2.20;96031.00;;;;5006661;28;20445;-82
2023/12/10 07:19:15;;;;;;;0.70;0.70;;;-0.30;99.90;2.20;96032.00;;;;5004788;28;20480;-82
2023/12/10 07:22:05;;;;;;;0.90;0.90;;;-0.30;99.90;1.70;96029.00;;;;5004715;28;20452;-83
2023/12/10 07:24:54;;;;;;;0.70;0.70;;;-0.30;99.90;1.80;96022.00;;;;5007099;28;20461;-83
2023/12/10 07:27:43;;;;;;;0.60;0.60;;;-0.30;99.90;1.50;96030.00;;;;5009480;28;20437;-83
2023/12/10 07:30:33;;;;;;;0.53;0.53;;;-0.30;99.90;1.30;96044.00;;;;5008032;28;20811;-82
2023/12/10 07:33:22;;;;;;;0.47;0.47;;;-0.40;99.90;1.10;96047.00;;;;5009192;28;20433;-84
2023/12/10 07:36:12;;;;;;;0.70;0.70;;;-0.40;99.90;1.70;96045.00;;;;5008604;28;20433;-82
2023/12/10 07:39:01;;;;;;;0.53;0.53;;;-0.40;99.90;2.20;96058.00;;;;5009584;28;20452;-82
2023/12/10 07:41:50;;;;;;;0.80;0.80;;;-0.30;99.90;2.00;96058.00;;;;5007678;28;20487;-83
2023/12/10 07:44:39;;;;;;;0.57;0.57;;;-0.30;99.90;2.60;96076.00;;;;5009034;28;20468;-83
2023/12/10 07:47:29;;;;;;;0.63;0.63;;;-0.20;99.90;2.60;96097.00;;;;5010077;28;20509;-82
2023/12/10 07:50:18;;;;;;;0.70;0.70;;;0.00;99.90;2.10;96087.00;;;;5009077;28;20475;-83
2023/12/10 07:53:07;;;;;;;0.90;0.90;;;-0.10;99.90;2.60;96098.00;;;;5008110;28;20440;-84
2023/12/10 07:55:56;;;;;;;0.70;0.70;;;0.00;99.90;2.90;96112.00;;;;5010119;28;21001;-83
2023/12/10 07:58:45;;;;;;;0.70;0.70;;;0.10;99.90;3.00;96129.00;;;;5009143;28;20441;-83
2023/12/10 08:01:34;;;;;;;0.50;0.50;;;0.30;99.90;3.10;96113.00;;;;5008875;28;20445;-83
2023/12/10 08:04:24;;;;;;;0.70;0.70;;;0.30;99.90;3.30;96119.00;;;;5009974;28;20468;-83
2023/12/10 08:07:13;;;;;;;0.90;0.90;;;0.50;99.90;3.40;96123.00;;;;5010451;28;20819;-84
2023/12/10 08:10:02;;;;;;;0.83;0.83;;;0.50;99.90;3.30;96132.00;;;;5008346;28;20449;-83
2023/12/10 08:12:51;;;;;;;0.60;0.60;;;0.60;99.90;3.10;96129.00;;;;5008765;28;20441;-83
2023/12/10 08:15:41;;;;;;;0.67;0.67;;;0.60;99.90;2.80;96128.00;;;;5010420;28;20441;-83
2023/12/10 08:18:30;;;;;;;0.53;0.53;;;0.60;99.90;2.80;96139.00;;;;5009194;28;20433;-83
2023/12/10 08:21:20;;;;;;;0.90;0.90;;;0.60;99.90;2.90;96147.00;;;;5007464;28;20436;-83
2023/12/10 08:24:09;;;;;;;1.00;1.00;;;0.60;99.90;2.90;96141.00;;;;5008733;28;20460;-83
2023/12/10 08:26:58;;;;;;;0.70;0.70;;;0.60;99.90;3.10;96158.00;;;;5009508;28;20440;-83
2023/12/10 08:29:47;;;;;;;0.53;0.53;;;0.70;99.90;3.30;96169.00;;;;5018115;28;20632;-82
2023/12/10 08:32:36;;;;;;;0.80;0.80;;;0.80;99.90;3.30;96171.00;;;;5028043;28;20449;-83
2023/12/10 08:35:25;;;;;;;0.60;0.60;;;0.90;99.90;3.50;96167.00;;;;5011044;28;20495;-83
2023/12/10 08:38:16;;;;;;;0.90;0.90;;;0.90;99.90;3.90;96189.00;;;;5008516;28;20433;-83
2023/12/10 08:41:07;;;;;;;1.20;1.20;;;1.00;99.90;3.80;96183.00;;;;5008727;28;20465;-83
2023/12/10 08:43:56;;;;;;;0.70;0.70;;;1.10;99.90;2.80;96185.00;;;;5008458;28;20456;-83
2023/12/10 08:46:45;;;;;;;0.80;0.80;;;1.00;99.90;2.70;96199.00;;;;5008857;28;20437;-83
2023/12/10 08:49:34;;;;;;;0.80;0.80;;;0.90;99.90;3.40;96207.00;;;;5007717;28;20677;-83
2023/12/10 08:52:24;;;;;;;0.80;0.80;;;1.00;99.90;3.20;96215.00;;;;5005995;28;20441;-83
2023/12/10 08:55:14;;;;;;;0.80;0.80;;;1.00;99.90;3.10;96208.00;;;;5006413;28;20812;-82
2023/12/10 08:58:03;;;;;;;0.90;0.90;;;1.00;99.90;3.00;96212.00;;;;5004267;28;20441;-83
2023/12/10 09:00:52;;;;;;;1.00;1.00;;;0.90;99.90;3.10;96208.00;;;;5005968;28;20457;-83
2023/12/10 09:03:42;;;;;;;0.73;0.73;;;0.90;99.90;3.40;96229.00;;;;5007348;28;20453;-83
2023/12/10 09:06:31;;;;;;;0.73;0.73;;;1.00;99.90;4.00;96235.00;;;;5004865;28;20490;-83
2023/12/10 09:09:21;;;;;;;1.03;1.03;;;1.10;99.90;4.30;96241.00;;;;5009161;28;21845;-84
2023/12/10 09:12:11;;;;;;;0.90;0.90;;;1.30;99.90;4.20;96248.00;;;;5008554;28;20439;-83
2023/12/10 09:15:01;;;;;;;0.70;0.70;;;1.40;99.90;3.90;96256.00;;;;5010493;28;21135;-83
2023/12/10 09:17:50;;;;;;;0.70;0.70;;;1.40;99.90;3.80;96277.00;;;;5012669;28;20437;-83
2023/12/10 09:20:39;;;;;;;0.60;0.60;;;1.40;99.90;4.40;96277.00;;;;5010550;28;20978;-83
2023/12/10 09:23:28;;;;;;;0.70;0.70;;;2.70;99.90;4.30;96274.00;;;;5008168;28;20429;-82
2023/12/10 09:26:19;;;;;;;1.10;1.10;;;1.70;99.90;4.80;96271.00;;;;5005290;28;20900;-83
2023/12/10 09:29:10;;;;;;;1.10;1.10;;;1.80;99.90;4.20;96285.00;;;;5005891;28;20448;-83
2023/12/10 09:31:59;;;;;;;0.70;0.70;;;1.80;99.90;4.00;96277.00;;;;5007927;28;21029;-83
2023/12/10 09:34:48;;;;;;;0.70;0.70;;;1.80;99.90;4.90;96304.00;;;;5005458;28;20938;-83
2023/12/10 09:37:38;;;;;;;0.80;0.80;;;1.90;99.90;4.30;96305.00;;;;5008628;28;20444;-82
2023/12/10 09:40:27;;;;;;;0.83;0.83;;;2.00;99.90;4.30;96308.00;;;;5002901;28;20229;-83
2023/12/10 09:43:16;;;;;;;1.03;1.03;;;2.00;99.90;4.80;96303.00;;;;5006388;28;20444;-83
2023/12/10 09:46:09;;;;;;;1.23;1.23;;;2.00;99.90;4.90;96299.00;;;;5007775;28;20222;-83
2023/12/10 09:49:00;;;;;;;0.73;0.73;;;2.10;99.90;5.30;96305.00;;;;5005585;28;20456;-83
2023/12/10 09:51:49;;;;;;;1.00;1.00;;;2.30;99.90;5.00;96303.00;;;;5005709;28;20201;-82
2023/12/10 09:54:40;;;;;;;0.73;0.73;;;2.30;99.90;4.90;96300.00;;;;5005174;28;20499;-82
2023/12/10 09:57:30;;;;;;;1.03;1.03;;;2.40;99.90;5.40;96306.00;;;;5006290;28;20508;-83
2023/12/10 10:00:22;;;;;;;1.30;1.30;;;2.40;99.90;5.00;96300.00;;;;5006099;28;20233;-80
2023/12/10 10:03:14;;;;;;;1.43;1.43;;;2.50;99.90;4.70;96305.00;;;;5002497;28;20202;-87
2023/12/10 10:06:03;;;;;;;1.10;1.10;;;2.50;99.90;5.50;96314.00;;;;5005511;28;20236;-83
2023/12/10 10:08:52;;;;;;;0.97;0.97;;;2.60;99.90;5.60;96302.00;;;;5005781;28;20487;-82
2023/12/10 10:11:41;;;;;;;1.10;1.10;;;2.70;99.90;5.60;96318.00;;;;5005231;28;20206;-82
2023/12/10 10:14:30;;;;;;;0.60;0.60;;;2.80;99.90;5.80;96331.00;;;;5004880;28;20194;-82
2023/12/10 10:17:27;;;;;;;1.10;1.10;;;2.90;99.90;5.30;96312.00;;;;5005767;28;20206;-88
2023/12/10 10:20:18;;;;;;;0.90;0.90;;;3.00;99.90;4.40;96312.00;;;;5008544;28;20238;-86
2023/12/10 10:23:08;;;;;;;1.60;1.57;;;2.90;99.90;4.60;96309.00;;;;5007258;28;20212;-90
2023/12/10 10:25:57;;;;;;;1.20;1.20;;;2.80;99.90;4.90;96306.00;;;;5006303;28;20617;-89
2023/12/10 10:28:50;;;;;;;0.77;0.77;;;2.80;99.90;4.90;96302.00;;;;5007914;28;20686;-90
2023/12/10 10:31:39;;;;;;;0.77;0.77;;;2.70;99.90;4.40;96285.00;;;;5007900;28;20202;-85
2023/12/10 10:34:29;;;;;;;0.73;0.73;;;2.70;99.90;4.60;96309.00;;;;5007844;28;20580;-86
2023/12/10 10:37:19;;;;;;;1.00;1.00;;;2.60;99.90;4.70;96303.00;;;;5005225;28;20194;-85
2023/12/10 10:40:09;;;;;;;1.17;1.17;;;2.60;99.90;4.90;96307.00;;;;5003776;28;20222;-85
2023/12/10 10:42:58;;;;;;;0.87;0.87;;;2.70;99.90;5.80;96311.00;;;;5005018;28;20629;-84
2023/12/10 10:45:49;;;;;;;0.90;0.90;;;2.80;99.90;6.10;96297.00;;;;5005626;28;20221;-85
2023/12/10 10:48:41;;;;;;;0.87;0.87;;;3.00;99.90;5.40;96299.00;;;;5004749;28;20198;-86
2023/12/10 10:51:33;;;;;;;0.67;0.67;;;3.10;99.90;6.20;96307.00;;;;5007963;28;20618;-86
2023/12/10 10:54:25;;;;;;;0.87;0.87;;;3.20;99.90;6.40;96308.00;;;;5008901;28;20645;-89
2023/12/10 10:57:29;;;;;;;1.50;1.50;;;3.40;99.90;6.50;96320.00;;;;5001023;28;20209;-89
2023/12/10 11:00:35;;;;;;;1.20;1.20;;;3.60;99.90;7.10;96327.00;;;;5007025;28;20691;-87
2023/12/10 11:03:27;;;;;;;0.77;0.77;;;4.00;99.90;7.10;96330.00;;;;5013439;28;20206;-87
2023/12/10 11:06:17;;;;;;;1.20;1.20;;;4.40;99.90;6.80;96332.00;;;;5005242;28;20272;-89
2023/12/10 11:09:06;;;;;;;1.27;1.20;;;4.70;99.90;7.80;96339.00;;;;5009578;28;20205;-88
2023/12/10 11:11:58;;;;;;;0.90;0.90;;;5.00;99.90;7.70;96338.00;;;;5017143;28;20205;-86
2023/12/10 11:14:48;;;;;;;0.80;0.80;;;5.30;99.90;8.20;96343.00;;;;5018841;28;20827;-87
2023/12/10 11:17:52;;;;;;;0.87;0.87;;;5.40;99.90;8.70;96344.00;;;;5017264;28;20205;-89
2023/12/10 11:20:43;;;;;;;0.80;0.80;;;5.60;99.90;7.90;96342.00;;;;5008397;28;20579;-85
2023/12/10 11:23:32;;;;;;;0.70;0.70;;;5.80;99.90;7.80;96328.00;;;;5021259;28;20202;-86
2023/12/10 11:26:22;;;;;;;0.93;0.93;;;5.90;99.90;7.50;96308.00;;;;5019886;28;20233;-88
2023/12/10 11:29:14;;;;;;;1.00;1.00;;;5.80;99.90;9.60;96329.00;;;;5024356;28;20240;-88
2023/12/10 11:32:08;;;;;;;0.90;0.90;;;6.30;99.90;10.30;96343.00;;;;5019990;28;20205;-92
2023/12/10 11:34:58;;;;;;;1.00;1.00;;;7.10;99.90;9.20;96338.00;;;;5020417;28;20448;-87
2023/12/10 11:37:48;;;;;;;1.27;1.17;;;7.70;99.90;8.90;96328.00;;;;5024697;28;20206;-86
2023/12/10 11:40:37;;;;;;;1.43;1.33;;;7.70;99.90;9.50;96327.00;;;;5020862;28;20231;-91
2023/12/10 11:43:27;;;;;;;0.97;0.97;;;8.10;99.90;10.80;96340.00;;;;5022419;28;20206;-83
2023/12/10 11:46:22;;;;;;;2.00;1.83;;;8.80;99.90;10.90;96356.00;;;;5017315;28;20660;-83
2023/12/10 11:49:14;;;;;;;2.33;2.13;;;9.40;99.90;11.40;96352.00;;;;5013589;28;20723;-83
2023/12/10 11:52:03;;;;;;;0.90;0.90;;;9.90;99.90;10.20;96350.00;;;;5008120;28;20252;-83
2023/12/10 11:54:53;;;;;;;2.37;2.17;;;10.50;99.90;11.00;96338.00;;;;5006536;28;20600;-83
2023/12/10 11:57:43;;;;;;;0.93;0.90;;;10.10;99.90;10.60;96353.00;;;;5003600;28;20226;-84
2023/12/10 12:00:32;;;;;;;1.20;1.10;;;10.10;99.90;9.80;96350.00;;;;5004083;28;20764;-84
2023/12/10 12:03:24;;;;;;;1.90;1.80;;;9.60;99.90;8.50;96355.00;;;;5007162;28;20201;-83
2023/12/10 12:06:13;;;;;;;2.13;1.93;;;8.60;99.90;9.80;96348.00;;;;5008211;28;20198;-83
2023/12/10 12:09:03;;;;;;;1.00;0.90;;;8.10;99.90;10.40;96384.00;;;;5013308;28;20214;-88
2023/12/10 12:11:53;;;;;;;1.40;1.30;;;8.20;99.90;10.80;96383.00;;;;5009751;28;20675;-82
2023/12/10 12:14:41;;;;;;;1.73;1.40;;;8.40;99.90;12.20;96372.00;;;;5009456;28;20213;-83
2023/12/10 12:17:31;;;;;;;3.83;1.97;;;8.80;99.90;10.60;96389.00;;;;5012701;28;20226;-83
2023/12/10 12:20:25;;;;;;;7.53;3.90;;;9.00;99.90;10.10;96344.00;;;;5015907;28;20230;-84
2023/12/10 12:23:17;;;;;;;6.83;3.47;;;8.80;99.90;10.40;96340.00;;;;5011803;28;20219;-86
2023/12/10 12:26:08;;;;;;;6.47;3.80;;;8.80;99.90;11.00;96360.00;;;;5022237;28;20581;-89
2023/12/10 12:28:57;;;;;;;2.67;2.03;;;9.00;99.90;11.50;96355.00;;;;5019443;28;20206;-90
2023/12/10 12:31:47;;;;;;;2.30;1.90;;;9.20;99.90;11.90;96372.00;;;;5009441;28;20678;-83
2023/12/10 12:34:40;;;;;;;1.63;1.47;;;9.70;99.90;9.60;96345.00;;;;5019190;28;20282;-83
2023/12/10 12:37:31;;;;;;;1.60;1.40;;;9.50;99.90;9.20;96352.00;;;;5019139;28;20229;-83
2023/12/10 12:40:20;;;;;;;2.07;1.87;;;8.90;99.90;10.00;96349.00;;;;5018220;28;20237;-84
2023/12/10 12:43:09;;;;;;;1.30;1.20;;;8.60;99.90;10.10;96407.00;;;;5006061;28;20206;-83
2023/12/10 12:45:58;;;;;;;1.90;1.60;;;8.50;99.90;9.10;96395.00;;;;5012921;28;20570;-83